sensor_id;sensor_type;location;lat;lon;timestamp;P1;durP1;ratioP1;P2;durP2;ratioP2
2289;SDS011;1153;47.986;7.898;2022-10-17T00:00:35;1.17;;;1.07;;
2289;SDS011;1153;47.986;7.898;2022-10-17T00:03:00;4.70;;;1.47;;
2289;SDS011;1153;47.986;7.898;2022-10-17T00:05:26;8.50;;;1.10;;
2289;SDS011;1153;47.986;7.898;2022-10-17T00:07:51;4.80;;;1.30;;
2289;SDS011;1153;47.986;7.898;2022-10-17T00:10:17;2.07;;;1.00;;
2289;SDS011;1153;47.986;7.898;2022-10-17T00:12:42;3.00;;;1.60;;
2289;SDS011;1153;47.986;7.898;2022-10-17T00:15:07;7.87;;;1.20;;
2289;SDS011;1153;47.986;7.898;2022-10-17T00:17:33;1.00;;;0.80;;
2289;SDS011;1153;47.986;7.898;2022-10-17T00:19:59;5.90;;;1.20;;
2289;SDS011;1153;47.986;7.898;2022-10-17T00:22:24;2.50;;;1.20;;
2289;SDS011;1153;47.986;7.898;2022-10-17T00:24:49;1.33;;;1.13;;
2289;SDS011;1153;47.986;7.898;2022-10-17T00:27:14;9.83;;;0.80;;
2289;SDS011;1153;47.986;7.898;2022-10-17T00:29:39;4.07;;;1.50;;
2289;SDS011;1153;47.986;7.898;2022-10-17T00:32:05;2.70;;;1.23;;
2289;SDS011;1153;47.986;7.898;2022-10-17T00:34:30;3.57;;;1.17;;
2289;SDS011;1153;47.986;7.898;2022-10-17T00:36:55;2.50;;;1.83;;
2289;SDS011;1153;47.986;7.898;2022-10-17T00:39:20;8.17;;;1.07;;
2289;SDS011;1153;47.986;7.898;2022-10-17T00:41:46;8.90;;;1.37;;
2289;SDS011;1153;47.986;7.898;2022-10-17T00:46:58;4.43;;;1.17;;
2289;SDS011;1153;47.986;7.898;2022-10-17T00:49:26;2.33;;;1.20;;
2289;SDS011;1153;47.986;7.898;2022-10-17T00:51:53;1.80;;;1.10;;
2289;SDS011;1153;47.986;7.898;2022-10-17T00:54:22;3.20;;;1.40;;
2289;SDS011;1153;47.986;7.898;2022-10-17T00:56:48;5.67;;;1.40;;
2289;SDS011;1153;47.986;7.898;2022-10-17T00:59:14;9.17;;;1.30;;
2289;SDS011;1153;47.986;7.898;2022-10-17T01:01:40;2.00;;;1.50;;
2289;SDS011;1153;47.986;7.898;2022-10-17T01:04:07;6.00;;;1.93;;
2289;SDS011;1153;47.986;7.898;2022-10-17T01:06:33;4.10;;;1.30;;
2289;SDS011;1153;47.986;7.898;2022-10-17T01:08:58;7.63;;;1.70;;
2289;SDS011;1153;47.986;7.898;2022-10-17T01:11:31;5.77;;;1.40;;
2289;SDS011;1153;47.986;7.898;2022-10-17T01:14:00;1.93;;;1.20;;
2289;SDS011;1153;47.986;7.898;2022-10-17T01:22:16;3.20;;;1.10;;
2289;SDS011;1153;47.986;7.898;2022-10-17T01:34:54;6.50;;;1.53;;
2289;SDS011;1153;47.986;7.898;2022-10-17T01:37:32;3.00;;;1.77;;
2289;SDS011;1153;47.986;7.898;2022-10-17T01:40:33;6.57;;;1.13;;
2289;SDS011;1153;47.986;7.898;2022-10-17T01:45:15;1.17;;;0.87;;
2289;SDS011;1153;47.986;7.898;2022-10-17T01:47:43;6.23;;;1.13;;
2289;SDS011;1153;47.986;7.898;2022-10-17T01:50:15;3.77;;;1.63;;
2289;SDS011;1153;47.986;7.898;2022-10-17T01:52:47;2.50;;;1.93;;
2289;SDS011;1153;47.986;7.898;2022-10-17T01:55:15;2.90;;;1.30;;
2289;SDS011;1153;47.986;7.898;2022-10-17T01:57:47;2.73;;;1.33;;
2289;SDS011;1153;47.986;7.898;2022-10-17T02:00:14;9.43;;;1.40;;
2289;SDS011;1153;47.986;7.898;2022-10-17T02:02:41;1.13;;;1.03;;
2289;SDS011;1153;47.986;7.898;2022-10-17T02:05:08;1.30;;;0.90;;
2289;SDS011;1153;47.986;7.898;2022-10-17T02:07:33;2.70;;;1.33;;
2289;SDS011;1153;47.986;7.898;2022-10-17T02:09:59;5.13;;;1.27;;
2289;SDS011;1153;47.986;7.898;2022-10-17T02:22:51;1.53;;;1.00;;
2289;SDS011;1153;47.986;7.898;2022-10-17T02:27:51;1.83;;;1.00;;
2289;SDS011;1153;47.986;7.898;2022-10-17T02:30:40;4.53;;;1.20;;
2289;SDS011;1153;47.986;7.898;2022-10-17T02:33:08;4.50;;;1.20;;
2289;SDS011;1153;47.986;7.898;2022-10-17T02:35:35;2.00;;;1.90;;
2289;SDS011;1153;47.986;7.898;2022-10-17T02:38:02;1.93;;;1.00;;
2289;SDS011;1153;47.986;7.898;2022-10-17T02:40:29;2.93;;;1.20;;
2289;SDS011;1153;47.986;7.898;2022-10-17T02:42:55;4.13;;;1.93;;
2289;SDS011;1153;47.986;7.898;2022-10-17T02:45:22;5.27;;;1.33;;
2289;SDS011;1153;47.986;7.898;2022-10-17T02:50:17;8.07;;;1.50;;
2289;SDS011;1153;47.986;7.898;2022-10-17T02:52:45;1.30;;;1.20;;
2289;SDS011;1153;47.986;7.898;2022-10-17T03:00:06;2.93;;;1.90;;
2289;SDS011;1153;47.986;7.898;2022-10-17T03:02:46;3.70;;;1.23;;
2289;SDS011;1153;47.986;7.898;2022-10-17T03:05:14;3.50;;;1.13;;
2289;SDS011;1153;47.986;7.898;2022-10-17T03:07:40;1.00;;;0.90;;
2289;SDS011;1153;47.986;7.898;2022-10-17T03:10:05;13.03;;;2.30;;
2289;SDS011;1153;47.986;7.898;2022-10-17T03:12:30;1.60;;;1.30;;
2289;SDS011;1153;47.986;7.898;2022-10-17T03:14:56;9.97;;;1.50;;
2289;SDS011;1153;47.986;7.898;2022-10-17T03:17:21;2.73;;;1.50;;
2289;SDS011;1153;47.986;7.898;2022-10-17T03:19:46;3.33;;;1.87;;
2289;SDS011;1153;47.986;7.898;2022-10-17T03:22:11;2.40;;;1.50;;
2289;SDS011;1153;47.986;7.898;2022-10-17T03:24:37;1.40;;;1.27;;
2289;SDS011;1153;47.986;7.898;2022-10-17T03:27:02;1.73;;;1.10;;
2289;SDS011;1153;47.986;7.898;2022-10-17T03:29:27;6.10;;;1.57;;
2289;SDS011;1153;47.986;7.898;2022-10-17T03:31:52;4.60;;;1.90;;
2289;SDS011;1153;47.986;7.898;2022-10-17T03:34:17;2.10;;;2.00;;
2289;SDS011;1153;47.986;7.898;2022-10-17T03:36:43;1.60;;;1.20;;
2289;SDS011;1153;47.986;7.898;2022-10-17T03:39:08;4.50;;;1.30;;
2289;SDS011;1153;47.986;7.898;2022-10-17T03:41:33;2.80;;;1.27;;
2289;SDS011;1153;47.986;7.898;2022-10-17T03:43:59;1.33;;;1.23;;
2289;SDS011;1153;47.986;7.898;2022-10-17T03:46:24;7.80;;;1.97;;
2289;SDS011;1153;47.986;7.898;2022-10-17T03:48:49;8.97;;;1.47;;
2289;SDS011;1153;47.986;7.898;2022-10-17T03:51:15;4.50;;;1.30;;
2289;SDS011;1153;47.986;7.898;2022-10-17T03:53:40;7.03;;;1.67;;
2289;SDS011;1153;47.986;7.898;2022-10-17T03:56:09;2.90;;;1.23;;
2289;SDS011;1153;47.986;7.898;2022-10-17T03:58:34;2.87;;;0.97;;
2289;SDS011;1153;47.986;7.898;2022-10-17T04:01:06;1.37;;;1.27;;
2289;SDS011;1153;47.986;7.898;2022-10-17T04:03:31;2.00;;;1.67;;
2289;SDS011;1153;47.986;7.898;2022-10-17T04:05:57;3.77;;;1.93;;
2289;SDS011;1153;47.986;7.898;2022-10-17T04:08:23;1.77;;;1.30;;
2289;SDS011;1153;47.986;7.898;2022-10-17T04:10:48;4.87;;;1.50;;
2289;SDS011;1153;47.986;7.898;2022-10-17T04:13:13;1.37;;;1.27;;
2289;SDS011;1153;47.986;7.898;2022-10-17T04:15:38;2.40;;;1.10;;
2289;SDS011;1153;47.986;7.898;2022-10-17T04:18:03;1.80;;;1.70;;
2289;SDS011;1153;47.986;7.898;2022-10-17T04:20:29;4.47;;;1.40;;
2289;SDS011;1153;47.986;7.898;2022-10-17T04:22:54;3.00;;;1.10;;
2289;SDS011;1153;47.986;7.898;2022-10-17T04:25:19;5.73;;;1.23;;
2289;SDS011;1153;47.986;7.898;2022-10-17T04:27:45;3.00;;;1.80;;
2289;SDS011;1153;47.986;7.898;2022-10-17T04:30:10;1.77;;;1.50;;
2289;SDS011;1153;47.986;7.898;2022-10-17T04:32:36;2.00;;;1.50;;
2289;SDS011;1153;47.986;7.898;2022-10-17T04:35:02;5.83;;;1.60;;
2289;SDS011;1153;47.986;7.898;2022-10-17T04:37:27;2.60;;;2.47;;
2289;SDS011;1153;47.986;7.898;2022-10-17T04:39:53;3.83;;;1.20;;
2289;SDS011;1153;47.986;7.898;2022-10-17T04:42:18;1.93;;;1.83;;
2289;SDS011;1153;47.986;7.898;2022-10-17T04:44:43;9.13;;;1.40;;
2289;SDS011;1153;47.986;7.898;2022-10-17T04:47:08;2.33;;;1.20;;
2289;SDS011;1153;47.986;7.898;2022-10-17T04:49:34;8.47;;;2.00;;
2289;SDS011;1153;47.986;7.898;2022-10-17T04:51:59;12.53;;;1.60;;
2289;SDS011;1153;47.986;7.898;2022-10-17T04:54:24;2.40;;;1.50;;
2289;SDS011;1153;47.986;7.898;2022-10-17T04:56:49;3.40;;;1.70;;
2289;SDS011;1153;47.986;7.898;2022-10-17T04:59:14;1.60;;;1.00;;
2289;SDS011;1153;47.986;7.898;2022-10-17T05:01:40;7.10;;;1.30;;
2289;SDS011;1153;47.986;7.898;2022-10-17T05:04:05;7.33;;;1.90;;
2289;SDS011;1153;47.986;7.898;2022-10-17T05:06:30;1.20;;;1.10;;
2289;SDS011;1153;47.986;7.898;2022-10-17T05:08:56;6.00;;;2.30;;
2289;SDS011;1153;47.986;7.898;2022-10-17T05:11:22;3.13;;;2.20;;
2289;SDS011;1153;47.986;7.898;2022-10-17T05:13:49;1.90;;;1.47;;
2289;SDS011;1153;47.986;7.898;2022-10-17T05:16:14;7.50;;;1.93;;
2289;SDS011;1153;47.986;7.898;2022-10-17T05:18:39;1.73;;;1.60;;
2289;SDS011;1153;47.986;7.898;2022-10-17T05:21:04;5.07;;;1.77;;
2289;SDS011;1153;47.986;7.898;2022-10-17T05:23:30;1.57;;;1.40;;
2289;SDS011;1153;47.986;7.898;2022-10-17T05:25:55;2.93;;;1.93;;
2289;SDS011;1153;47.986;7.898;2022-10-17T05:28:21;1.90;;;1.80;;
2289;SDS011;1153;47.986;7.898;2022-10-17T05:30:46;3.20;;;1.57;;
2289;SDS011;1153;47.986;7.898;2022-10-17T05:33:11;3.43;;;1.73;;
2289;SDS011;1153;47.986;7.898;2022-10-17T05:35:37;5.97;;;1.60;;
2289;SDS011;1153;47.986;7.898;2022-10-17T05:38:02;2.60;;;1.83;;
2289;SDS011;1153;47.986;7.898;2022-10-17T05:40:27;1.80;;;1.70;;
2289;SDS011;1153;47.986;7.898;2022-10-17T05:42:52;6.33;;;1.57;;
2289;SDS011;1153;47.986;7.898;2022-10-17T05:45:17;7.50;;;1.37;;
2289;SDS011;1153;47.986;7.898;2022-10-17T05:47:43;3.10;;;1.40;;
2289;SDS011;1153;47.986;7.898;2022-10-17T05:50:08;4.13;;;1.30;;
2289;SDS011;1153;47.986;7.898;2022-10-17T05:52:33;11.70;;;2.13;;
2289;SDS011;1153;47.986;7.898;2022-10-17T05:54:59;2.07;;;1.97;;
2289;SDS011;1153;47.986;7.898;2022-10-17T05:57:24;11.63;;;2.20;;
2289;SDS011;1153;47.986;7.898;2022-10-17T05:59:49;8.53;;;2.00;;
2289;SDS011;1153;47.986;7.898;2022-10-17T06:02:15;1.60;;;1.50;;
2289;SDS011;1153;47.986;7.898;2022-10-17T06:04:40;4.97;;;2.30;;
2289;SDS011;1153;47.986;7.898;2022-10-17T06:07:09;3.97;;;2.20;;
2289;SDS011;1153;47.986;7.898;2022-10-17T06:09:34;3.40;;;2.33;;
2289;SDS011;1153;47.986;7.898;2022-10-17T06:12:00;2.63;;;1.50;;
2289;SDS011;1153;47.986;7.898;2022-10-17T06:14:25;3.70;;;1.70;;
2289;SDS011;1153;47.986;7.898;2022-10-17T06:16:50;2.37;;;1.30;;
2289;SDS011;1153;47.986;7.898;2022-10-17T06:19:15;5.63;;;1.27;;
2289;SDS011;1153;47.986;7.898;2022-10-17T06:21:40;11.73;;;2.10;;
2289;SDS011;1153;47.986;7.898;2022-10-17T06:24:06;2.20;;;2.10;;
2289;SDS011;1153;47.986;7.898;2022-10-17T06:26:31;5.63;;;1.40;;
2289;SDS011;1153;47.986;7.898;2022-10-17T06:28:56;3.90;;;1.83;;
2289;SDS011;1153;47.986;7.898;2022-10-17T06:31:21;2.60;;;2.07;;
2289;SDS011;1153;47.986;7.898;2022-10-17T06:33:47;2.50;;;1.40;;
2289;SDS011;1153;47.986;7.898;2022-10-17T06:36:12;2.30;;;1.57;;
2289;SDS011;1153;47.986;7.898;2022-10-17T06:38:38;1.87;;;1.57;;
2289;SDS011;1153;47.986;7.898;2022-10-17T06:41:04;7.17;;;1.33;;
2289;SDS011;1153;47.986;7.898;2022-10-17T06:43:32;14.70;;;2.40;;
2289;SDS011;1153;47.986;7.898;2022-10-17T06:45:57;4.47;;;2.40;;
2289;SDS011;1153;47.986;7.898;2022-10-17T06:48:22;5.33;;;2.00;;
2289;SDS011;1153;47.986;7.898;2022-10-17T06:50:48;5.80;;;1.63;;
2289;SDS011;1153;47.986;7.898;2022-10-17T06:53:13;2.83;;;1.57;;
2289;SDS011;1153;47.986;7.898;2022-10-17T06:55:38;16.43;;;1.70;;
2289;SDS011;1153;47.986;7.898;2022-10-17T06:58:03;3.00;;;0.83;;
2289;SDS011;1153;47.986;7.898;2022-10-17T07:00:28;2.70;;;2.10;;
2289;SDS011;1153;47.986;7.898;2022-10-17T07:02:54;2.47;;;2.07;;
2289;SDS011;1153;47.986;7.898;2022-10-17T07:05:19;4.63;;;1.87;;
2289;SDS011;1153;47.986;7.898;2022-10-17T07:07:44;2.93;;;1.00;;
2289;SDS011;1153;47.986;7.898;2022-10-17T07:10:10;1.70;;;1.47;;
2289;SDS011;1153;47.986;7.898;2022-10-17T07:12:35;3.70;;;1.80;;
2289;SDS011;1153;47.986;7.898;2022-10-17T07:15:00;7.37;;;1.97;;
2289;SDS011;1153;47.986;7.898;2022-10-17T07:17:28;2.33;;;2.23;;
2289;SDS011;1153;47.986;7.898;2022-10-17T07:19:53;4.60;;;2.60;;
2289;SDS011;1153;47.986;7.898;2022-10-17T07:22:18;3.70;;;1.90;;
2289;SDS011;1153;47.986;7.898;2022-10-17T07:24:43;1.97;;;1.87;;
2289;SDS011;1153;47.986;7.898;2022-10-17T07:27:08;5.63;;;1.30;;
2289;SDS011;1153;47.986;7.898;2022-10-17T07:29:34;1.83;;;1.20;;
2289;SDS011;1153;47.986;7.898;2022-10-17T07:31:59;1.70;;;1.30;;
2289;SDS011;1153;47.986;7.898;2022-10-17T07:34:25;2.70;;;1.67;;
2289;SDS011;1153;47.986;7.898;2022-10-17T07:36:55;3.63;;;1.27;;
2289;SDS011;1153;47.986;7.898;2022-10-17T07:39:21;3.20;;;1.20;;
2289;SDS011;1153;47.986;7.898;2022-10-17T07:41:47;5.90;;;1.90;;
2289;SDS011;1153;47.986;7.898;2022-10-17T07:44:12;18.53;;;2.90;;
2289;SDS011;1153;47.986;7.898;2022-10-17T07:46:39;1.30;;;1.20;;
2289;SDS011;1153;47.986;7.898;2022-10-17T07:49:04;2.97;;;2.10;;
2289;SDS011;1153;47.986;7.898;2022-10-17T07:51:29;6.00;;;1.40;;
2289;SDS011;1153;47.986;7.898;2022-10-17T07:53:55;1.90;;;1.37;;
2289;SDS011;1153;47.986;7.898;2022-10-17T07:56:20;1.90;;;1.70;;
2289;SDS011;1153;47.986;7.898;2022-10-17T07:58:48;8.67;;;1.30;;
2289;SDS011;1153;47.986;7.898;2022-10-17T08:01:13;4.27;;;1.83;;
2289;SDS011;1153;47.986;7.898;2022-10-17T08:03:45;9.13;;;2.07;;
2289;SDS011;1153;47.986;7.898;2022-10-17T08:06:11;3.03;;;0.97;;
2289;SDS011;1153;47.986;7.898;2022-10-17T08:08:36;3.53;;;1.43;;
2289;SDS011;1153;47.986;7.898;2022-10-17T08:11:06;1.30;;;1.10;;
2289;SDS011;1153;47.986;7.898;2022-10-17T08:13:31;4.30;;;1.10;;
2289;SDS011;1153;47.986;7.898;2022-10-17T08:16:00;1.53;;;1.20;;
2289;SDS011;1153;47.986;7.898;2022-10-17T08:18:26;1.30;;;1.20;;
2289;SDS011;1153;47.986;7.898;2022-10-17T08:20:51;1.50;;;1.40;;
2289;SDS011;1153;47.986;7.898;2022-10-17T08:23:16;5.53;;;1.60;;
2289;SDS011;1153;47.986;7.898;2022-10-17T08:25:41;2.67;;;1.43;;
2289;SDS011;1153;47.986;7.898;2022-10-17T08:28:07;1.77;;;1.00;;
2289;SDS011;1153;47.986;7.898;2022-10-17T08:30:32;1.20;;;1.10;;
2289;SDS011;1153;47.986;7.898;2022-10-17T08:32:57;0.93;;;0.80;;
2289;SDS011;1153;47.986;7.898;2022-10-17T08:35:22;1.93;;;1.73;;
2289;SDS011;1153;47.986;7.898;2022-10-17T08:37:48;4.03;;;1.33;;
2289;SDS011;1153;47.986;7.898;2022-10-17T08:40:18;2.80;;;0.90;;
2289;SDS011;1153;47.986;7.898;2022-10-17T08:45:42;2.50;;;1.00;;
2289;SDS011;1153;47.986;7.898;2022-10-17T08:48:11;1.93;;;0.90;;
2289;SDS011;1153;47.986;7.898;2022-10-17T08:53:05;1.30;;;1.20;;
2289;SDS011;1153;47.986;7.898;2022-10-17T08:55:38;1.73;;;0.90;;
2289;SDS011;1153;47.986;7.898;2022-10-17T08:58:14;8.60;;;0.97;;
2289;SDS011;1153;47.986;7.898;2022-10-17T09:00:42;4.57;;;0.70;;
2289;SDS011;1153;47.986;7.898;2022-10-17T09:16:23;4.23;;;0.70;;
2289;SDS011;1153;47.986;7.898;2022-10-17T09:19:02;0.80;;;0.50;;
2289;SDS011;1153;47.986;7.898;2022-10-17T09:23:58;2.50;;;1.00;;
2289;SDS011;1153;47.986;7.898;2022-10-17T09:26:24;1.83;;;1.73;;
2289;SDS011;1153;47.986;7.898;2022-10-17T09:28:53;0.90;;;0.50;;
2289;SDS011;1153;47.986;7.898;2022-10-17T09:31:24;2.13;;;0.80;;
2289;SDS011;1153;47.986;7.898;2022-10-17T09:33:51;2.07;;;0.70;;
2289;SDS011;1153;47.986;7.898;2022-10-17T09:36:20;3.53;;;0.60;;
2289;SDS011;1153;47.986;7.898;2022-10-17T09:38:49;6.47;;;1.00;;
2289;SDS011;1153;47.986;7.898;2022-10-17T09:41:33;4.40;;;0.80;;
2289;SDS011;1153;47.986;7.898;2022-10-17T09:44:07;0.93;;;0.93;;
2289;SDS011;1153;47.986;7.898;2022-10-17T09:46:36;4.73;;;0.60;;
2289;SDS011;1153;47.986;7.898;2022-10-17T09:49:04;9.00;;;0.70;;
2289;SDS011;1153;47.986;7.898;2022-10-17T09:51:30;1.67;;;0.80;;
2289;SDS011;1153;47.986;7.898;2022-10-17T09:53:58;1.07;;;0.60;;
2289;SDS011;1153;47.986;7.898;2022-10-17T09:56:25;0.83;;;0.60;;
2289;SDS011;1153;47.986;7.898;2022-10-17T09:58:52;1.27;;;0.60;;
2289;SDS011;1153;47.986;7.898;2022-10-17T10:03:44;5.13;;;1.17;;
2289;SDS011;1153;47.986;7.898;2022-10-17T10:08:51;3.23;;;1.10;;
2289;SDS011;1153;47.986;7.898;2022-10-17T10:11:17;5.27;;;1.20;;
2289;SDS011;1153;47.986;7.898;2022-10-17T10:13:43;20.63;;;1.50;;
2289;SDS011;1153;47.986;7.898;2022-10-17T10:19:01;2.20;;;1.27;;
2289;SDS011;1153;47.986;7.898;2022-10-17T10:21:53;1.87;;;1.00;;
2289;SDS011;1153;47.986;7.898;2022-10-17T10:24:18;1.10;;;0.70;;
2289;SDS011;1153;47.986;7.898;2022-10-17T10:29:20;1.67;;;0.60;;
2289;SDS011;1153;47.986;7.898;2022-10-17T10:31:46;2.20;;;0.50;;
2289;SDS011;1153;47.986;7.898;2022-10-17T10:34:17;3.60;;;1.00;;
2289;SDS011;1153;47.986;7.898;2022-10-17T10:36:44;3.60;;;0.70;;
2289;SDS011;1153;47.986;7.898;2022-10-17T10:39:15;2.13;;;0.50;;
2289;SDS011;1153;47.986;7.898;2022-10-17T10:41:47;1.00;;;0.73;;
2289;SDS011;1153;47.986;7.898;2022-10-17T10:44:12;2.30;;;1.10;;
2289;SDS011;1153;47.986;7.898;2022-10-17T10:46:39;4.00;;;0.90;;
2289;SDS011;1153;47.986;7.898;2022-10-17T10:49:06;5.13;;;1.57;;
2289;SDS011;1153;47.986;7.898;2022-10-17T10:51:49;3.97;;;1.00;;
2289;SDS011;1153;47.986;7.898;2022-10-17T10:54:22;1.27;;;0.70;;
2289;SDS011;1153;47.986;7.898;2022-10-17T10:56:53;1.00;;;0.60;;
2289;SDS011;1153;47.986;7.898;2022-10-17T11:03:07;6.83;;;0.87;;
2289;SDS011;1153;47.986;7.898;2022-10-17T11:05:45;2.10;;;0.80;;
2289;SDS011;1153;47.986;7.898;2022-10-17T11:08:04;2.70;;;0.67;;
2289;SDS011;1153;47.986;7.898;2022-10-17T11:13:16;1.27;;;0.70;;
2289;SDS011;1153;47.986;7.898;2022-10-17T11:15:48;1.10;;;0.70;;
2289;SDS011;1153;47.986;7.898;2022-10-17T11:25:49;2.17;;;0.93;;
2289;SDS011;1153;47.986;7.898;2022-10-17T11:28:18;5.90;;;0.57;;
2289;SDS011;1153;47.986;7.898;2022-10-17T11:36:04;4.70;;;1.23;;
2289;SDS011;1153;47.986;7.898;2022-10-17T11:41:02;3.07;;;0.60;;
2289;SDS011;1153;47.986;7.898;2022-10-17T11:43:39;0.70;;;0.50;;
2289;SDS011;1153;47.986;7.898;2022-10-17T11:46:26;1.77;;;0.43;;
2289;SDS011;1153;47.986;7.898;2022-10-17T11:51:21;0.87;;;0.60;;
2289;SDS011;1153;47.986;7.898;2022-10-17T11:56:20;0.70;;;0.50;;
2289;SDS011;1153;47.986;7.898;2022-10-17T11:58:53;1.23;;;0.50;;
2289;SDS011;1153;47.986;7.898;2022-10-17T12:01:32;2.30;;;0.60;;
2289;SDS011;1153;47.986;7.898;2022-10-17T12:06:38;3.50;;;0.50;;
2289;SDS011;1153;47.986;7.898;2022-10-17T12:09:09;0.87;;;0.50;;
2289;SDS011;1153;47.986;7.898;2022-10-17T12:11:57;0.70;;;0.40;;
2289;SDS011;1153;47.986;7.898;2022-10-17T12:17:20;0.90;;;0.60;;
2289;SDS011;1153;47.986;7.898;2022-10-17T12:19:46;1.73;;;0.50;;
2289;SDS011;1153;47.986;7.898;2022-10-17T12:24:43;4.53;;;0.60;;
2289;SDS011;1153;47.986;7.898;2022-10-17T12:30:00;2.50;;;0.50;;
2289;SDS011;1153;47.986;7.898;2022-10-17T12:32:25;2.90;;;0.43;;
2289;SDS011;1153;47.986;7.898;2022-10-17T12:34:51;1.37;;;0.90;;
2289;SDS011;1153;47.986;7.898;2022-10-17T12:40:01;2.87;;;0.40;;
2289;SDS011;1153;47.986;7.898;2022-10-17T12:42:30;0.97;;;0.40;;
2289;SDS011;1153;47.986;7.898;2022-10-17T12:44:56;1.47;;;0.43;;
2289;SDS011;1153;47.986;7.898;2022-10-17T12:49:49;0.67;;;0.40;;
2289;SDS011;1153;47.986;7.898;2022-10-17T12:57:22;2.60;;;0.50;;
2289;SDS011;1153;47.986;7.898;2022-10-17T12:59:49;2.23;;;0.70;;
2289;SDS011;1153;47.986;7.898;2022-10-17T13:02:19;4.43;;;0.60;;
2289;SDS011;1153;47.986;7.898;2022-10-17T13:04:44;3.40;;;0.50;;
2289;SDS011;1153;47.986;7.898;2022-10-17T13:07:14;1.23;;;0.53;;
2289;SDS011;1153;47.986;7.898;2022-10-17T13:09:41;1.07;;;0.97;;
2289;SDS011;1153;47.986;7.898;2022-10-17T13:12:10;0.60;;;0.40;;
2289;SDS011;1153;47.986;7.898;2022-10-17T13:14:37;1.60;;;0.40;;
2289;SDS011;1153;47.986;7.898;2022-10-17T13:17:04;7.00;;;0.60;;
2289;SDS011;1153;47.986;7.898;2022-10-17T13:19:30;1.27;;;0.40;;
2289;SDS011;1153;47.986;7.898;2022-10-17T13:21:57;0.80;;;0.40;;
2289;SDS011;1153;47.986;7.898;2022-10-17T13:26:50;0.63;;;0.40;;
2289;SDS011;1153;47.986;7.898;2022-10-17T13:29:15;0.60;;;0.50;;
2289;SDS011;1153;47.986;7.898;2022-10-17T13:31:41;0.70;;;0.50;;
2289;SDS011;1153;47.986;7.898;2022-10-17T13:34:20;1.30;;;0.60;;
2289;SDS011;1153;47.986;7.898;2022-10-17T13:36:46;0.60;;;0.40;;
2289;SDS011;1153;47.986;7.898;2022-10-17T13:39:13;0.93;;;0.50;;
2289;SDS011;1153;47.986;7.898;2022-10-17T13:41:39;1.00;;;0.40;;
2289;SDS011;1153;47.986;7.898;2022-10-17T13:44:08;1.07;;;0.60;;
2289;SDS011;1153;47.986;7.898;2022-10-17T13:46:35;1.53;;;0.40;;
2289;SDS011;1153;47.986;7.898;2022-10-17T13:49:10;0.77;;;0.43;;
2289;SDS011;1153;47.986;7.898;2022-10-17T13:51:40;1.17;;;0.50;;
2289;SDS011;1153;47.986;7.898;2022-10-17T13:54:27;0.97;;;0.57;;
2289;SDS011;1153;47.986;7.898;2022-10-17T13:56:55;0.77;;;0.40;;
2289;SDS011;1153;47.986;7.898;2022-10-17T13:59:22;1.00;;;0.50;;
2289;SDS011;1153;47.986;7.898;2022-10-17T14:01:47;1.53;;;0.70;;
2289;SDS011;1153;47.986;7.898;2022-10-17T14:04:14;4.33;;;0.50;;
2289;SDS011;1153;47.986;7.898;2022-10-17T14:06:42;1.93;;;1.33;;
2289;SDS011;1153;47.986;7.898;2022-10-17T14:09:42;0.73;;;0.50;;
2289;SDS011;1153;47.986;7.898;2022-10-17T14:14:28;4.97;;;0.57;;
2289;SDS011;1153;47.986;7.898;2022-10-17T14:16:54;2.40;;;0.50;;
2289;SDS011;1153;47.986;7.898;2022-10-17T14:19:31;2.37;;;0.50;;
2289;SDS011;1153;47.986;7.898;2022-10-17T14:24:41;0.93;;;0.50;;
2289;SDS011;1153;47.986;7.898;2022-10-17T14:27:27;6.30;;;0.60;;
2289;SDS011;1153;47.986;7.898;2022-10-17T14:29:54;2.10;;;0.50;;
2289;SDS011;1153;47.986;7.898;2022-10-17T14:32:21;1.07;;;0.43;;
2289;SDS011;1153;47.986;7.898;2022-10-17T14:34:50;0.90;;;0.50;;
2289;SDS011;1153;47.986;7.898;2022-10-17T14:40:00;0.90;;;0.50;;
2289;SDS011;1153;47.986;7.898;2022-10-17T14:42:26;2.70;;;0.60;;
2289;SDS011;1153;47.986;7.898;2022-10-17T14:44:54;0.80;;;0.60;;
2289;SDS011;1153;47.986;7.898;2022-10-17T14:47:22;0.83;;;0.50;;
2289;SDS011;1153;47.986;7.898;2022-10-17T14:49:50;0.60;;;0.40;;
2289;SDS011;1153;47.986;7.898;2022-10-17T14:54:45;0.80;;;0.50;;
2289;SDS011;1153;47.986;7.898;2022-10-17T14:57:14;1.10;;;0.50;;
2289;SDS011;1153;47.986;7.898;2022-10-17T14:59:40;1.17;;;0.53;;
2289;SDS011;1153;47.986;7.898;2022-10-17T15:02:07;1.13;;;0.50;;
2289;SDS011;1153;47.986;7.898;2022-10-17T15:04:32;1.70;;;0.40;;
2289;SDS011;1153;47.986;7.898;2022-10-17T15:06:57;0.70;;;0.40;;
2289;SDS011;1153;47.986;7.898;2022-10-17T15:09:22;4.07;;;0.47;;
2289;SDS011;1153;47.986;7.898;2022-10-17T15:11:48;1.47;;;0.50;;
2289;SDS011;1153;47.986;7.898;2022-10-17T15:14:13;1.37;;;0.50;;
2289;SDS011;1153;47.986;7.898;2022-10-17T15:16:38;0.90;;;0.50;;
2289;SDS011;1153;47.986;7.898;2022-10-17T15:19:03;1.57;;;0.40;;
2289;SDS011;1153;47.986;7.898;2022-10-17T15:21:28;2.67;;;0.60;;
2289;SDS011;1153;47.986;7.898;2022-10-17T15:23:54;7.03;;;0.50;;
2289;SDS011;1153;47.986;7.898;2022-10-17T15:28:44;3.40;;;0.53;;
2289;SDS011;1153;47.986;7.898;2022-10-17T15:31:11;0.80;;;0.50;;
2289;SDS011;1153;47.986;7.898;2022-10-17T15:33:37;3.57;;;0.73;;
2289;SDS011;1153;47.986;7.898;2022-10-17T15:36:02;0.80;;;0.50;;
2289;SDS011;1153;47.986;7.898;2022-10-17T15:38:28;1.13;;;0.40;;
2289;SDS011;1153;47.986;7.898;2022-10-17T15:40:53;2.73;;;0.40;;
2289;SDS011;1153;47.986;7.898;2022-10-17T15:43:18;0.87;;;0.50;;
2289;SDS011;1153;47.986;7.898;2022-10-17T15:45:43;1.47;;;0.60;;
2289;SDS011;1153;47.986;7.898;2022-10-17T15:48:09;1.97;;;0.60;;
2289;SDS011;1153;47.986;7.898;2022-10-17T15:50:39;2.57;;;0.53;;
2289;SDS011;1153;47.986;7.898;2022-10-17T15:53:04;0.80;;;0.70;;
2289;SDS011;1153;47.986;7.898;2022-10-17T15:55:29;0.90;;;0.67;;
2289;SDS011;1153;47.986;7.898;2022-10-17T15:57:55;1.50;;;0.60;;
2289;SDS011;1153;47.986;7.898;2022-10-17T16:00:22;0.90;;;0.50;;
2289;SDS011;1153;47.986;7.898;2022-10-17T16:02:48;2.03;;;0.70;;
2289;SDS011;1153;47.986;7.898;2022-10-17T16:07:40;4.43;;;1.43;;
2289;SDS011;1153;47.986;7.898;2022-10-17T16:10:05;2.83;;;0.90;;
2289;SDS011;1153;47.986;7.898;2022-10-17T16:12:30;8.27;;;0.80;;
2289;SDS011;1153;47.986;7.898;2022-10-17T16:15:00;8.47;;;0.70;;
2289;SDS011;1153;47.986;7.898;2022-10-17T16:17:26;1.67;;;0.77;;
2289;SDS011;1153;47.986;7.898;2022-10-17T16:19:51;3.50;;;0.70;;
2289;SDS011;1153;47.986;7.898;2022-10-17T16:22:19;8.57;;;0.90;;
2289;SDS011;1153;47.986;7.898;2022-10-17T16:24:44;3.00;;;0.93;;
2289;SDS011;1153;47.986;7.898;2022-10-17T16:27:10;2.97;;;0.93;;
2289;SDS011;1153;47.986;7.898;2022-10-17T16:29:35;4.47;;;0.70;;
2289;SDS011;1153;47.986;7.898;2022-10-17T16:32:00;3.63;;;0.90;;
2289;SDS011;1153;47.986;7.898;2022-10-17T16:34:25;6.10;;;1.13;;
2289;SDS011;1153;47.986;7.898;2022-10-17T16:36:50;2.63;;;0.67;;
2289;SDS011;1153;47.986;7.898;2022-10-17T16:39:15;8.93;;;1.07;;
2289;SDS011;1153;47.986;7.898;2022-10-17T16:41:41;4.10;;;0.83;;
2289;SDS011;1153;47.986;7.898;2022-10-17T16:44:07;1.10;;;0.90;;
2289;SDS011;1153;47.986;7.898;2022-10-17T16:46:32;7.30;;;1.10;;
2289;SDS011;1153;47.986;7.898;2022-10-17T16:48:59;6.20;;;1.40;;
2289;SDS011;1153;47.986;7.898;2022-10-17T16:51:25;4.30;;;1.20;;
2289;SDS011;1153;47.986;7.898;2022-10-17T16:53:50;4.23;;;1.87;;
2289;SDS011;1153;47.986;7.898;2022-10-17T16:56:17;3.90;;;1.30;;
2289;SDS011;1153;47.986;7.898;2022-10-17T16:58:43;4.10;;;1.63;;
2289;SDS011;1153;47.986;7.898;2022-10-17T17:01:12;9.53;;;1.40;;
2289;SDS011;1153;47.986;7.898;2022-10-17T17:03:39;9.03;;;2.00;;
2289;SDS011;1153;47.986;7.898;2022-10-17T17:06:05;3.00;;;0.93;;
2289;SDS011;1153;47.986;7.898;2022-10-17T17:08:31;11.53;;;1.20;;
2289;SDS011;1153;47.986;7.898;2022-10-17T17:10:56;3.43;;;1.10;;
2289;SDS011;1153;47.986;7.898;2022-10-17T17:13:22;4.80;;;1.87;;
2289;SDS011;1153;47.986;7.898;2022-10-17T17:15:48;8.53;;;1.27;;
2289;SDS011;1153;47.986;7.898;2022-10-17T17:18:17;3.53;;;0.90;;
2289;SDS011;1153;47.986;7.898;2022-10-17T17:20:42;1.20;;;1.10;;
2289;SDS011;1153;47.986;7.898;2022-10-17T17:23:07;2.80;;;1.30;;
2289;SDS011;1153;47.986;7.898;2022-10-17T17:25:34;4.00;;;1.90;;
2289;SDS011;1153;47.986;7.898;2022-10-17T17:28:02;1.83;;;1.70;;
2289;SDS011;1153;47.986;7.898;2022-10-17T17:30:28;8.40;;;1.70;;
2289;SDS011;1153;47.986;7.898;2022-10-17T17:32:53;2.93;;;1.70;;